sensor_id;sensor_type;location;lat;lon;timestamp;P1;durP1;ratioP1;P2;durP2;ratioP2
9801;SDS011;4940;50.900;4.672;2022-12-01T00:14:07;30.88;;;13.48;;
9801;SDS011;4940;50.900;4.672;2022-12-01T00:16:49;32.65;;;14.43;;
9801;SDS011;4940;50.900;4.672;2022-12-01T00:19:34;28.40;;;13.17;;
9801;SDS011;4940;50.900;4.672;2022-12-01T00:22:16;29.27;;;15.33;;
9801;SDS011;4940;50.900;4.672;2022-12-01T00:25:00;33.20;;;13.70;;
9801;SDS011;4940;50.900;4.672;2022-12-01T00:27:46;30.33;;;14.43;;
9801;SDS011;4940;50.900;4.672;2022-12-01T00:39:53;29.75;;;13.45;;
9801;SDS011;4940;50.900;4.672;2022-12-01T00:42:34;29.35;;;14.18;;
9801;SDS011;4940;50.900;4.672;2022-12-01T00:45:18;27.70;;;13.82;;
9801;SDS011;4940;50.900;4.672;2022-12-01T00:48:01;29.67;;;13.30;;
9801;SDS011;4940;50.900;4.672;2022-12-01T01:00:16;31.42;;;13.45;;
9801;SDS011;4940;50.900;4.672;2022-12-01T01:02:44;31.27;;;14.55;;
9801;SDS011;4940;50.900;4.672;2022-12-01T01:05:35;33.42;;;14.75;;
9801;SDS011;4940;50.900;4.672;2022-12-01T01:08:45;27.48;;;13.60;;
9801;SDS011;4940;50.900;4.672;2022-12-01T01:11:14;33.25;;;15.23;;
9801;SDS011;4940;50.900;4.672;2022-12-01T01:13:58;31.15;;;14.07;;
9801;SDS011;4940;50.900;4.672;2022-12-01T01:22:49;31.70;;;15.23;;
9801;SDS011;4940;50.900;4.672;2022-12-01T01:25:19;29.55;;;14.45;;
9801;SDS011;4940;50.900;4.672;2022-12-01T01:27:49;30.35;;;14.68;;
9801;SDS011;4940;50.900;4.672;2022-12-01T01:30:17;34.60;;;14.80;;
9801;SDS011;4940;50.900;4.672;2022-12-01T01:32:55;30.77;;;14.35;;
9801;SDS011;4940;50.900;4.672;2022-12-01T01:35:29;31.43;;;13.77;;
9801;SDS011;4940;50.900;4.672;2022-12-01T01:38:27;35.47;;;15.45;;
9801;SDS011;4940;50.900;4.672;2022-12-01T01:41:16;33.38;;;14.70;;
9801;SDS011;4940;50.900;4.672;2022-12-01T01:44:39;33.53;;;14.52;;
9801;SDS011;4940;50.900;4.672;2022-12-01T01:47:25;34.25;;;15.77;;
9801;SDS011;4940;50.900;4.672;2022-12-01T01:57:02;31.25;;;14.10;;
9801;SDS011;4940;50.900;4.672;2022-12-01T02:00:07;34.25;;;14.82;;
9801;SDS011;4940;50.900;4.672;2022-12-01T02:02:38;31.77;;;14.45;;
9801;SDS011;4940;50.900;4.672;2022-12-01T02:05:10;34.10;;;14.48;;
9801;SDS011;4940;50.900;4.672;2022-12-01T02:07:57;34.15;;;14.25;;
9801;SDS011;4940;50.900;4.672;2022-12-01T02:14:11;30.90;;;15.40;;
9801;SDS011;4940;50.900;4.672;2022-12-01T02:17:17;29.90;;;13.73;;
9801;SDS011;4940;50.900;4.672;2022-12-01T02:20:21;32.33;;;15.87;;
9801;SDS011;4940;50.900;4.672;2022-12-01T02:36:18;33.05;;;14.15;;
9801;SDS011;4940;50.900;4.672;2022-12-01T02:39:01;36.58;;;14.93;;
9801;SDS011;4940;50.900;4.672;2022-12-01T02:41:36;38.25;;;15.23;;
9801;SDS011;4940;50.900;4.672;2022-12-01T02:44:23;29.88;;;13.65;;
9801;SDS011;4940;50.900;4.672;2022-12-01T02:46:57;30.33;;;13.73;;
9801;SDS011;4940;50.900;4.672;2022-12-01T02:52:47;33.13;;;13.63;;
9801;SDS011;4940;50.900;4.672;2022-12-01T02:55:31;31.63;;;14.40;;
9801;SDS011;4940;50.900;4.672;2022-12-01T02:58:15;35.53;;;14.50;;
9801;SDS011;4940;50.900;4.672;2022-12-01T03:01:14;28.87;;;12.60;;
9801;SDS011;4940;50.900;4.672;2022-12-01T03:03:54;39.55;;;14.70;;
9801;SDS011;4940;50.900;4.672;2022-12-01T03:19:27;33.95;;;13.90;;
9801;SDS011;4940;50.900;4.672;2022-12-01T03:22:17;34.47;;;14.30;;
9801;SDS011;4940;50.900;4.672;2022-12-01T03:28:00;31.23;;;12.55;;
9801;SDS011;4940;50.900;4.672;2022-12-01T03:31:14;30.98;;;13.15;;
9801;SDS011;4940;50.900;4.672;2022-12-01T03:33:52;35.03;;;14.37;;
9801;SDS011;4940;50.900;4.672;2022-12-01T03:40:40;39.93;;;14.40;;
9801;SDS011;4940;50.900;4.672;2022-12-01T03:43:12;35.40;;;13.63;;
9801;SDS011;4940;50.900;4.672;2022-12-01T03:46:42;34.00;;;13.10;;
9801;SDS011;4940;50.900;4.672;2022-12-01T03:49:51;29.67;;;13.05;;
9801;SDS011;4940;50.900;4.672;2022-12-01T03:52:39;33.33;;;13.87;;
9801;SDS011;4940;50.900;4.672;2022-12-01T04:01:50;44.38;;;14.55;;
9801;SDS011;4940;50.900;4.672;2022-12-01T04:04:21;32.57;;;14.87;;
9801;SDS011;4940;50.900;4.672;2022-12-01T04:07:09;41.10;;;15.03;;
9801;SDS011;4940;50.900;4.672;2022-12-01T04:09:54;34.37;;;14.00;;
9801;SDS011;4940;50.900;4.672;2022-12-01T04:18:36;39.72;;;14.40;;
9801;SDS011;4940;50.900;4.672;2022-12-01T04:21:39;40.75;;;14.32;;
9801;SDS011;4940;50.900;4.672;2022-12-01T04:24:07;35.57;;;13.50;;
9801;SDS011;4940;50.900;4.672;2022-12-01T04:26:48;42.03;;;14.83;;
9801;SDS011;4940;50.900;4.672;2022-12-01T04:29:18;40.03;;;14.30;;
9801;SDS011;4940;50.900;4.672;2022-12-01T04:41:40;35.50;;;15.07;;
9801;SDS011;4940;50.900;4.672;2022-12-01T04:44:38;40.93;;;15.03;;
9801;SDS011;4940;50.900;4.672;2022-12-01T04:47:22;40.37;;;15.60;;
9801;SDS011;4940;50.900;4.672;2022-12-01T04:50:17;37.60;;;15.40;;
9801;SDS011;4940;50.900;4.672;2022-12-01T04:52:59;38.30;;;16.47;;
9801;SDS011;4940;50.900;4.672;2022-12-01T04:55:40;39.03;;;14.00;;
9801;SDS011;4940;50.900;4.672;2022-12-01T04:58:27;35.20;;;13.97;;
9801;SDS011;4940;50.900;4.672;2022-12-01T05:01:03;40.83;;;14.75;;
9801;SDS011;4940;50.900;4.672;2022-12-01T05:03:37;38.42;;;15.38;;
9801;SDS011;4940;50.900;4.672;2022-12-01T05:06:36;42.10;;;15.95;;
9801;SDS011;4940;50.900;4.672;2022-12-01T05:09:18;39.85;;;15.10;;
9801;SDS011;4940;50.900;4.672;2022-12-01T05:12:14;35.85;;;14.63;;
9801;SDS011;4940;50.900;4.672;2022-12-01T05:24:37;46.20;;;15.20;;
9801;SDS011;4940;50.900;4.672;2022-12-01T05:27:42;39.05;;;15.23;;
9801;SDS011;4940;50.900;4.672;2022-12-01T05:30:24;44.43;;;15.77;;
9801;SDS011;4940;50.900;4.672;2022-12-01T05:33:09;38.33;;;15.63;;
9801;SDS011;4940;50.900;4.672;2022-12-01T05:35:56;45.03;;;14.63;;
9801;SDS011;4940;50.900;4.672;2022-12-01T05:50:44;48.67;;;17.17;;
9801;SDS011;4940;50.900;4.672;2022-12-01T05:53:17;42.33;;;14.87;;
9801;SDS011;4940;50.900;4.672;2022-12-01T05:55:58;42.20;;;16.45;;
9801;SDS011;4940;50.900;4.672;2022-12-01T05:58:40;45.63;;;15.27;;
9801;SDS011;4940;50.900;4.672;2022-12-01T06:01:25;42.78;;;14.23;;
9801;SDS011;4940;50.900;4.672;2022-12-01T06:07:22;38.90;;;15.50;;
9801;SDS011;4940;50.900;4.672;2022-12-01T06:09:55;43.00;;;16.40;;
9801;SDS011;4940;50.900;4.672;2022-12-01T06:12:44;41.13;;;16.30;;
9801;SDS011;4940;50.900;4.672;2022-12-01T06:15:54;43.20;;;15.60;;
9801;SDS011;4940;50.900;4.672;2022-12-01T06:18:37;38.30;;;14.68;;
9801;SDS011;4940;50.900;4.672;2022-12-01T06:21:18;41.55;;;15.07;;
9801;SDS011;4940;50.900;4.672;2022-12-01T06:30:12;37.13;;;14.93;;
9801;SDS011;4940;50.900;4.672;2022-12-01T06:32:50;44.00;;;15.60;;
9801;SDS011;4940;50.900;4.672;2022-12-01T06:35:55;35.08;;;13.50;;
9801;SDS011;4940;50.900;4.672;2022-12-01T06:38:43;37.30;;;14.73;;
9801;SDS011;4940;50.900;4.672;2022-12-01T06:41:24;39.55;;;14.75;;
9801;SDS011;4940;50.900;4.672;2022-12-01T07:34:24;43.33;;;16.50;;
9801;SDS011;4940;50.900;4.672;2022-12-01T07:36:52;36.15;;;15.23;;
9801;SDS011;4940;50.900;4.672;2022-12-01T07:39:22;42.65;;;14.95;;
9801;SDS011;4940;50.900;4.672;2022-12-01T07:41:51;33.55;;;14.50;;
9801;SDS011;4940;50.900;4.672;2022-12-01T07:44:19;32.95;;;14.63;;
9801;SDS011;4940;50.900;4.672;2022-12-01T07:46:55;39.77;;;13.90;;
9801;SDS011;4940;50.900;4.672;2022-12-01T08:04:54;32.72;;;13.93;;
9801;SDS011;4940;50.900;4.672;2022-12-01T08:07:23;34.67;;;13.88;;
9801;SDS011;4940;50.900;4.672;2022-12-01T08:09:51;35.85;;;13.45;;
9801;SDS011;4940;50.900;4.672;2022-12-01T08:12:19;41.72;;;15.55;;
9801;SDS011;4940;50.900;4.672;2022-12-01T08:14:46;36.17;;;14.48;;
9801;SDS011;4940;50.900;4.672;2022-12-01T08:17:14;35.63;;;14.95;;
9801;SDS011;4940;50.900;4.672;2022-12-01T08:20:06;36.72;;;14.25;;
9801;SDS011;4940;50.900;4.672;2022-12-01T08:22:34;34.95;;;14.40;;
9801;SDS011;4940;50.900;4.672;2022-12-01T08:25:16;35.20;;;13.45;;
9801;SDS011;4940;50.900;4.672;2022-12-01T08:27:59;37.05;;;13.68;;
9801;SDS011;4940;50.900;4.672;2022-12-01T08:30:27;35.00;;;14.27;;
9801;SDS011;4940;50.900;4.672;2022-12-01T08:32:55;35.65;;;14.57;;
9801;SDS011;4940;50.900;4.672;2022-12-01T08:35:39;33.08;;;13.90;;
9801;SDS011;4940;50.900;4.672;2022-12-01T08:38:10;31.52;;;13.93;;
9801;SDS011;4940;50.900;4.672;2022-12-01T08:40:52;32.65;;;14.65;;
9801;SDS011;4940;50.900;4.672;2022-12-01T08:43:25;30.10;;;14.23;;
9801;SDS011;4940;50.900;4.672;2022-12-01T08:46:07;32.95;;;14.10;;
9801;SDS011;4940;50.900;4.672;2022-12-01T08:48:35;37.15;;;14.63;;
9801;SDS011;4940;50.900;4.672;2022-12-01T08:51:08;37.85;;;14.20;;
9801;SDS011;4940;50.900;4.672;2022-12-01T08:53:38;33.05;;;14.95;;
9801;SDS011;4940;50.900;4.672;2022-12-01T08:56:09;29.92;;;13.40;;
9801;SDS011;4940;50.900;4.672;2022-12-01T08:58:37;36.90;;;14.45;;
9801;SDS011;4940;50.900;4.672;2022-12-01T09:01:18;33.35;;;14.65;;
9801;SDS011;4940;50.900;4.672;2022-12-01T09:03:47;31.15;;;13.55;;
9801;SDS011;4940;50.900;4.672;2022-12-01T09:06:32;39.42;;;14.77;;
9801;SDS011;4940;50.900;4.672;2022-12-01T09:09:15;33.88;;;13.70;;
9801;SDS011;4940;50.900;4.672;2022-12-01T09:11:43;37.28;;;14.73;;
9801;SDS011;4940;50.900;4.672;2022-12-01T09:14:12;34.63;;;13.55;;
9801;SDS011;4940;50.900;4.672;2022-12-01T09:16:40;34.60;;;14.10;;
9801;SDS011;4940;50.900;4.672;2022-12-01T09:19:08;37.15;;;14.02;;
9801;SDS011;4940;50.900;4.672;2022-12-01T09:21:37;33.70;;;14.18;;
9801;SDS011;4940;50.900;4.672;2022-12-01T09:24:08;30.40;;;14.13;;
9801;SDS011;4940;50.900;4.672;2022-12-01T09:26:37;37.23;;;14.20;;
9801;SDS011;4940;50.900;4.672;2022-12-01T09:29:07;37.55;;;14.65;;
9801;SDS011;4940;50.900;4.672;2022-12-01T09:31:38;36.00;;;15.05;;
9801;SDS011;4940;50.900;4.672;2022-12-01T09:34:28;30.02;;;14.07;;
9801;SDS011;4940;50.900;4.672;2022-12-01T09:36:56;38.47;;;15.20;;
9801;SDS011;4940;50.900;4.672;2022-12-01T09:39:24;35.47;;;14.77;;
9801;SDS011;4940;50.900;4.672;2022-12-01T09:41:52;32.08;;;14.15;;
9801;SDS011;4940;50.900;4.672;2022-12-01T09:44:30;35.10;;;14.40;;
9801;SDS011;4940;50.900;4.672;2022-12-01T09:47:04;31.30;;;13.68;;
9801;SDS011;4940;50.900;4.672;2022-12-01T09:49:40;33.58;;;14.15;;
9801;SDS011;4940;50.900;4.672;2022-12-01T09:52:12;33.10;;;14.07;;
9801;SDS011;4940;50.900;4.672;2022-12-01T09:54:41;32.53;;;13.75;;
9801;SDS011;4940;50.900;4.672;2022-12-01T09:57:12;29.75;;;13.82;;
9801;SDS011;4940;50.900;4.672;2022-12-01T09:59:43;30.95;;;13.38;;
9801;SDS011;4940;50.900;4.672;2022-12-01T10:05:01;30.45;;;13.68;;
9801;SDS011;4940;50.900;4.672;2022-12-01T10:07:32;28.17;;;13.45;;
9801;SDS011;4940;50.900;4.672;2022-12-01T10:10:03;36.38;;;14.25;;
9801;SDS011;4940;50.900;4.672;2022-12-01T10:12:33;32.08;;;14.00;;
9801;SDS011;4940;50.900;4.672;2022-12-01T10:15:09;35.95;;;13.95;;
9801;SDS011;4940;50.900;4.672;2022-12-01T10:17:44;28.35;;;13.07;;
9801;SDS011;4940;50.900;4.672;2022-12-01T10:20:20;28.65;;;13.80;;
9801;SDS011;4940;50.900;4.672;2022-12-01T10:22:59;33.55;;;13.57;;
9801;SDS011;4940;50.900;4.672;2022-12-01T10:25:45;36.92;;;14.40;;
9801;SDS011;4940;50.900;4.672;2022-12-01T10:31:30;32.15;;;13.80;;
9801;SDS011;4940;50.900;4.672;2022-12-01T10:34:07;32.83;;;13.57;;
9801;SDS011;4940;50.900;4.672;2022-12-01T10:36:40;31.35;;;14.00;;
9801;SDS011;4940;50.900;4.672;2022-12-01T10:39:09;30.98;;;13.77;;
9801;SDS011;4940;50.900;4.672;2022-12-01T10:41:43;37.65;;;14.30;;
9801;SDS011;4940;50.900;4.672;2022-12-01T10:44:12;26.75;;;12.80;;
9801;SDS011;4940;50.900;4.672;2022-12-01T10:46:42;29.60;;;13.18;;
9801;SDS011;4940;50.900;4.672;2022-12-01T10:49:13;28.75;;;12.95;;
9801;SDS011;4940;50.900;4.672;2022-12-01T10:51:50;28.35;;;12.48;;
9801;SDS011;4940;50.900;4.672;2022-12-01T10:54:19;26.15;;;13.32;;
9801;SDS011;4940;50.900;4.672;2022-12-01T10:56:48;28.33;;;11.83;;
9801;SDS011;4940;50.900;4.672;2022-12-01T10:59:27;28.80;;;11.95;;
9801;SDS011;4940;50.900;4.672;2022-12-01T11:01:57;26.10;;;12.32;;
9801;SDS011;4940;50.900;4.672;2022-12-01T11:04:34;30.35;;;12.98;;
9801;SDS011;4940;50.900;4.672;2022-12-01T11:07:15;26.73;;;12.57;;
9801;SDS011;4940;50.900;4.672;2022-12-01T11:09:45;26.85;;;11.50;;
9801;SDS011;4940;50.900;4.672;2022-12-01T11:12:21;25.60;;;11.55;;
9801;SDS011;4940;50.900;4.672;2022-12-01T11:14:49;28.33;;;11.27;;
9801;SDS011;4940;50.900;4.672;2022-12-01T11:17:27;24.75;;;11.40;;
9801;SDS011;4940;50.900;4.672;2022-12-01T11:19:56;28.50;;;11.60;;
9801;SDS011;4940;50.900;4.672;2022-12-01T11:22:26;24.50;;;11.73;;
9801;SDS011;4940;50.900;4.672;2022-12-01T11:24:57;23.85;;;11.20;;
9801;SDS011;4940;50.900;4.672;2022-12-01T11:27:26;24.80;;;11.30;;
9801;SDS011;4940;50.900;4.672;2022-12-01T11:29:58;21.45;;;10.82;;
9801;SDS011;4940;50.900;4.672;2022-12-01T11:32:29;22.67;;;11.23;;
9801;SDS011;4940;50.900;4.672;2022-12-01T11:34:59;25.15;;;11.85;;
9801;SDS011;4940;50.900;4.672;2022-12-01T11:37:30;26.70;;;12.68;;
9801;SDS011;4940;50.900;4.672;2022-12-01T11:40:07;22.67;;;11.27;;
9801;SDS011;4940;50.900;4.672;2022-12-01T11:42:41;23.02;;;11.00;;
9801;SDS011;4940;50.900;4.672;2022-12-01T11:45:23;23.08;;;10.90;;
9801;SDS011;4940;50.900;4.672;2022-12-01T11:47:57;20.00;;;10.18;;
9801;SDS011;4940;50.900;4.672;2022-12-01T11:50:27;25.65;;;10.18;;
9801;SDS011;4940;50.900;4.672;2022-12-01T11:52:56;23.95;;;11.00;;
9801;SDS011;4940;50.900;4.672;2022-12-01T11:55:24;26.08;;;11.80;;
9801;SDS011;4940;50.900;4.672;2022-12-01T11:57:54;23.38;;;11.05;;
9801;SDS011;4940;50.900;4.672;2022-12-01T12:00:24;22.75;;;10.80;;
9801;SDS011;4940;50.900;4.672;2022-12-01T12:02:59;22.13;;;10.43;;
9801;SDS011;4940;50.900;4.672;2022-12-01T12:05:48;18.88;;;9.50;;
9801;SDS011;4940;50.900;4.672;2022-12-01T12:08:38;17.58;;;9.60;;
9801;SDS011;4940;50.900;4.672;2022-12-01T12:11:16;22.02;;;10.90;;
9801;SDS011;4940;50.900;4.672;2022-12-01T12:16:54;25.17;;;10.77;;
9801;SDS011;4940;50.900;4.672;2022-12-01T12:19:41;21.35;;;10.60;;
9801;SDS011;4940;50.900;4.672;2022-12-01T12:22:27;23.15;;;10.98;;
9801;SDS011;4940;50.900;4.672;2022-12-01T12:25:09;20.15;;;9.88;;
9801;SDS011;4940;50.900;4.672;2022-12-01T12:27:49;19.80;;;10.10;;
9801;SDS011;4940;50.900;4.672;2022-12-01T12:30:25;22.13;;;10.98;;
9801;SDS011;4940;50.900;4.672;2022-12-01T12:33:03;20.85;;;10.23;;
9801;SDS011;4940;50.900;4.672;2022-12-01T12:35:54;23.42;;;10.82;;
9801;SDS011;4940;50.900;4.672;2022-12-01T12:41:23;24.38;;;11.90;;
9801;SDS011;4940;50.900;4.672;2022-12-01T12:44:02;20.98;;;10.75;;
9801;SDS011;4940;50.900;4.672;2022-12-01T12:46:39;23.17;;;10.75;;
9801;SDS011;4940;50.900;4.672;2022-12-01T12:49:16;21.42;;;10.05;;
9801;SDS011;4940;50.900;4.672;2022-12-01T12:51:57;24.65;;;11.30;;
9801;SDS011;4940;50.900;4.672;2022-12-01T12:54:28;21.90;;;10.00;;
9801;SDS011;4940;50.900;4.672;2022-12-01T12:56:59;23.77;;;11.50;;
9801;SDS011;4940;50.900;4.672;2022-12-01T12:59:30;25.65;;;10.75;;
9801;SDS011;4940;50.900;4.672;2022-12-01T13:02:07;27.80;;;10.85;;
9801;SDS011;4940;50.900;4.672;2022-12-01T13:04:39;26.38;;;11.25;;
9801;SDS011;4940;50.900;4.672;2022-12-01T13:10:02;24.48;;;10.20;;
9801;SDS011;4940;50.900;4.672;2022-12-01T13:12:37;22.05;;;10.80;;
9801;SDS011;4940;50.900;4.672;2022-12-01T13:15:12;23.92;;;11.38;;
9801;SDS011;4940;50.900;4.672;2022-12-01T13:17:41;29.55;;;12.70;;
9801;SDS011;4940;50.900;4.672;2022-12-01T13:20:12;24.77;;;12.57;;
9801;SDS011;4940;50.900;4.672;2022-12-01T13:22:41;31.23;;;12.13;;
9801;SDS011;4940;50.900;4.672;2022-12-01T13:25:10;27.50;;;12.60;;
9801;SDS011;4940;50.900;4.672;2022-12-01T13:27:41;28.75;;;13.18;;
9801;SDS011;4940;50.900;4.672;2022-12-01T13:30:17;26.15;;;12.35;;
9801;SDS011;4940;50.900;4.672;2022-12-01T13:32:45;28.80;;;11.98;;
9801;SDS011;4940;50.900;4.672;2022-12-01T13:35:21;25.92;;;12.30;;
9801;SDS011;4940;50.900;4.672;2022-12-01T13:37:51;25.48;;;12.57;;
9801;SDS011;4940;50.900;4.672;2022-12-01T13:40:21;25.60;;;12.00;;
9801;SDS011;4940;50.900;4.672;2022-12-01T13:42:54;25.77;;;12.82;;
9801;SDS011;4940;50.900;4.672;2022-12-01T13:45:22;25.83;;;12.85;;
9801;SDS011;4940;50.900;4.672;2022-12-01T13:47:50;29.38;;;11.55;;
9801;SDS011;4940;50.900;4.672;2022-12-01T13:53:24;25.45;;;12.05;;
9801;SDS011;4940;50.900;4.672;2022-12-01T13:55:54;24.00;;;11.60;;
9801;SDS011;4940;50.900;4.672;2022-12-01T13:58:39;23.23;;;10.85;;
9801;SDS011;4940;50.900;4.672;2022-12-01T14:04:21;25.27;;;11.63;;
9801;SDS011;4940;50.900;4.672;2022-12-01T14:07:11;24.98;;;12.02;;
9801;SDS011;4940;50.900;4.672;2022-12-01T14:09:47;24.08;;;11.73;;
9801;SDS011;4940;50.900;4.672;2022-12-01T14:12:16;25.73;;;11.52;;
9801;SDS011;4940;50.900;4.672;2022-12-01T14:14:49;24.13;;;11.18;;
9801;SDS011;4940;50.900;4.672;2022-12-01T14:17:23;29.55;;;11.93;;
9801;SDS011;4940;50.900;4.672;2022-12-01T14:20:05;21.67;;;11.25;;
9801;SDS011;4940;50.900;4.672;2022-12-01T14:22:34;26.73;;;11.68;;
9801;SDS011;4940;50.900;4.672;2022-12-01T14:25:04;28.88;;;12.25;;
9801;SDS011;4940;50.900;4.672;2022-12-01T14:27:47;24.33;;;11.60;;
9801;SDS011;4940;50.900;4.672;2022-12-01T14:36:35;25.55;;;11.57;;
9801;SDS011;4940;50.900;4.672;2022-12-01T14:39:10;24.02;;;12.40;;
9801;SDS011;4940;50.900;4.672;2022-12-01T14:41:41;23.98;;;12.18;;
9801;SDS011;4940;50.900;4.672;2022-12-01T14:44:15;27.95;;;11.95;;
9801;SDS011;4940;50.900;4.672;2022-12-01T14:46:48;25.65;;;12.07;;
9801;SDS011;4940;50.900;4.672;2022-12-01T14:49:22;26.40;;;12.27;;
9801;SDS011;4940;50.900;4.672;2022-12-01T14:51:52;24.40;;;12.35;;
9801;SDS011;4940;50.900;4.672;2022-12-01T14:54:24;24.75;;;12.15;;
9801;SDS011;4940;50.900;4.672;2022-12-01T14:56:57;25.08;;;12.05;;
9801;SDS011;4940;50.900;4.672;2022-12-01T14:59:27;29.45;;;14.00;;
9801;SDS011;4940;50.900;4.672;2022-12-01T15:01:57;27.85;;;13.38;;
9801;SDS011;4940;50.900;4.672;2022-12-01T15:04:34;28.88;;;12.68;;
9801;SDS011;4940;50.900;4.672;2022-12-01T15:07:23;25.45;;;12.20;;
9801;SDS011;4940;50.900;4.672;2022-12-01T15:09:57;31.23;;;13.55;;
9801;SDS011;4940;50.900;4.672;2022-12-01T15:12:26;24.20;;;11.63;;
9801;SDS011;4940;50.900;4.672;2022-12-01T15:14:57;28.73;;;12.80;;
9801;SDS011;4940;50.900;4.672;2022-12-01T15:17:27;24.05;;;12.00;;
9801;SDS011;4940;50.900;4.672;2022-12-01T15:19:58;27.35;;;12.23;;
9801;SDS011;4940;50.900;4.672;2022-12-01T15:22:27;27.52;;;12.80;;
9801;SDS011;4940;50.900;4.672;2022-12-01T15:25:04;25.42;;;12.95;;
9801;SDS011;4940;50.900;4.672;2022-12-01T15:27:32;28.58;;;12.75;;
9801;SDS011;4940;50.900;4.672;2022-12-01T15:30:00;26.75;;;12.35;;
9801;SDS011;4940;50.900;4.672;2022-12-01T15:32:28;27.30;;;12.55;;
9801;SDS011;4940;50.900;4.672;2022-12-01T15:35:01;27.25;;;12.73;;
9801;SDS011;4940;50.900;4.672;2022-12-01T15:37:42;24.90;;;11.65;;
9801;SDS011;4940;50.900;4.672;2022-12-01T15:40:11;26.17;;;12.93;;
9801;SDS011;4940;50.900;4.672;2022-12-01T15:42:42;26.33;;;12.75;;
9801;SDS011;4940;50.900;4.672;2022-12-01T15:45:15;22.77;;;12.00;;
9801;SDS011;4940;50.900;4.672;2022-12-01T15:47:44;22.35;;;11.65;;
9801;SDS011;4940;50.900;4.672;2022-12-01T15:50:26;28.65;;;12.52;;
9801;SDS011;4940;50.900;4.672;2022-12-01T15:52:55;27.73;;;12.65;;
9801;SDS011;4940;50.900;4.672;2022-12-01T15:55:24;28.00;;;12.73;;
9801;SDS011;4940;50.900;4.672;2022-12-01T15:57:55;27.15;;;12.32;;
9801;SDS011;4940;50.900;4.672;2022-12-01T16:00:23;26.80;;;13.27;;
9801;SDS011;4940;50.900;4.672;2022-12-01T16:03:10;26.05;;;12.85;;
9801;SDS011;4940;50.900;4.672;2022-12-01T16:05:45;27.20;;;12.90;;
9801;SDS011;4940;50.900;4.672;2022-12-01T16:08:13;28.35;;;12.75;;
9801;SDS011;4940;50.900;4.672;2022-12-01T16:10:43;30.73;;;12.90;;
9801;SDS011;4940;50.900;4.672;2022-12-01T16:16:20;25.42;;;11.48;;
9801;SDS011;4940;50.900;4.672;2022-12-01T16:18:54;25.75;;;12.13;;
9801;SDS011;4940;50.900;4.672;2022-12-01T16:21:24;30.52;;;13.00;;
9801;SDS011;4940;50.900;4.672;2022-12-01T16:23:58;29.02;;;12.63;;
9801;SDS011;4940;50.900;4.672;2022-12-01T16:26:27;26.40;;;12.50;;
9801;SDS011;4940;50.900;4.672;2022-12-01T16:28:55;28.38;;;13.23;;
9801;SDS011;4940;50.900;4.672;2022-12-01T16:31:23;30.23;;;13.77;;
9801;SDS011;4940;50.900;4.672;2022-12-01T16:33:58;28.55;;;12.30;;
9801;SDS011;4940;50.900;4.672;2022-12-01T16:36:28;32.45;;;13.25;;
9801;SDS011;4940;50.900;4.672;2022-12-01T16:38:55;28.48;;;12.05;;
9801;SDS011;4940;50.900;4.672;2022-12-01T16:41:26;33.13;;;13.38;;
9801;SDS011;4940;50.900;4.672;2022-12-01T16:43:56;29.95;;;13.95;;
9801;SDS011;4940;50.900;4.672;2022-12-01T16:46:24;28.75;;;12.70;;
9801;SDS011;4940;50.900;4.672;2022-12-01T16:48:53;29.05;;;12.85;;
9801;SDS011;4940;50.900;4.672;2022-12-01T16:51:20;27.15;;;13.00;;
9801;SDS011;4940;50.900;4.672;2022-12-01T16:53:56;28.65;;;13.63;;
9801;SDS011;4940;50.900;4.672;2022-12-01T16:56:38;27.67;;;13.43;;
9801;SDS011;4940;50.900;4.672;2022-12-01T16:59:06;32.70;;;13.50;;
9801;SDS011;4940;50.900;4.672;2022-12-01T17:01:33;36.03;;;14.40;;
9801;SDS011;4940;50.900;4.672;2022-12-01T17:04:01;27.92;;;13.20;;
9801;SDS011;4940;50.900;4.672;2022-12-01T17:06:29;32.08;;;13.85;;
9801;SDS011;4940;50.900;4.672;2022-12-01T17:09:05;30.67;;;13.35;;
9801;SDS011;4940;50.900;4.672;2022-12-01T17:11:33;28.17;;;13.07;;
9801;SDS011;4940;50.900;4.672;2022-12-01T17:14:00;31.08;;;14.20;;
9801;SDS011;4940;50.900;4.672;2022-12-01T17:16:28;31.38;;;14.05;;
9801;SDS011;4940;50.900;4.672;2022-12-01T17:18:55;30.70;;;14.35;;
9801;SDS011;4940;50.900;4.672;2022-12-01T17:21:23;33.60;;;14.18;;
9801;SDS011;4940;50.900;4.672;2022-12-01T17:23:50;32.65;;;13.88;;
9801;SDS011;4940;50.900;4.672;2022-12-01T17:26:19;33.65;;;14.48;;
9801;SDS011;4940;50.900;4.672;2022-12-01T17:28:47;31.02;;;14.05;;
9801;SDS011;4940;50.900;4.672;2022-12-01T17:31:14;34.17;;;14.18;;
9801;SDS011;4940;50.900;4.672;2022-12-01T17:33:42;33.23;;;15.47;;
9801;SDS011;4940;50.900;4.672;2022-12-01T17:36:10;41.38;;;15.20;;
9801;SDS011;4940;50.900;4.672;2022-12-01T17:38:39;37.63;;;15.98;;
9801;SDS011;4940;50.900;4.672;2022-12-01T17:41:12;30.42;;;14.43;;
9801;SDS011;4940;50.900;4.672;2022-12-01T17:43:48;28.98;;;14.02;;
9801;SDS011;4940;50.900;4.672;2022-12-01T17:46:15;32.53;;;14.45;;
9801;SDS011;4940;50.900;4.672;2022-12-01T17:48:44;35.30;;;14.68;;
9801;SDS011;4940;50.900;4.672;2022-12-01T17:51:12;30.08;;;14.25;;
9801;SDS011;4940;50.900;4.672;2022-12-01T17:53:40;29.67;;;14.23;;
9801;SDS011;4940;50.900;4.672;2022-12-01T17:56:07;33.55;;;14.82;;
9801;SDS011;4940;50.900;4.672;2022-12-01T17:58:36;35.10;;;14.32;;
9801;SDS011;4940;50.900;4.672;2022-12-01T18:01:12;34.47;;;14.55;;
9801;SDS011;4940;50.900;4.672;2022-12-01T18:03:41;33.15;;;14.38;;
9801;SDS011;4940;50.900;4.672;2022-12-01T18:06:10;32.58;;;14.45;;
9801;SDS011;4940;50.900;4.672;2022-12-01T18:08:38;35.33;;;15.18;;
9801;SDS011;4940;50.900;4.672;2022-12-01T18:11:08;31.63;;;15.05;;
9801;SDS011;4940;50.900;4.672;2022-12-01T18:13:37;38.95;;;14.88;;
9801;SDS011;4940;50.900;4.672;2022-12-01T18:16:08;31.13;;;14.02;;
9801;SDS011;4940;50.900;4.672;2022-12-01T18:18:41;38.58;;;15.20;;
9801;SDS011;4940;50.900;4.672;2022-12-01T18:21:10;32.28;;;14.73;;
9801;SDS011;4940;50.900;4.672;2022-12-01T18:23:41;32.35;;;14.35;;
9801;SDS011;4940;50.900;4.672;2022-12-01T18:26:34;29.80;;;14.70;;
9801;SDS011;4940;50.900;4.672;2022-12-01T18:29:21;39.53;;;15.38;;
9801;SDS011;4940;50.900;4.672;2022-12-01T18:36:08;34.80;;;14.87;;
9801;SDS011;4940;50.900;4.672;2022-12-01T18:39:07;36.63;;;16.07;;
9801;SDS011;4940;50.900;4.672;2022-12-01T18:43:13;32.17;;;14.15;;
9801;SDS011;4940;50.900;4.672;2022-12-01T18:45:46;37.33;;;15.50;;
9801;SDS011;4940;50.900;4.672;2022-12-01T18:48:55;32.78;;;14.80;;
9801;SDS011;4940;50.900;4.672;2022-12-01T18:51:56;37.20;;;15.43;;
9801;SDS011;4940;50.900;4.672;2022-12-01T18:57:48;35.05;;;15.25;;
9801;SDS011;4940;50.900;4.672;2022-12-01T19:01:03;33.63;;;15.50;;
9801;SDS011;4940;50.900;4.672;2022-12-01T19:04:00;36.85;;;15.15;;
9801;SDS011;4940;50.900;4.672;2022-12-01T19:07:16;32.58;;;14.57;;
9801;SDS011;4940;50.900;4.672;2022-12-01T19:09:43;35.57;;;15.37;;
9801;SDS011;4940;50.900;4.672;2022-12-01T19:12:11;39.20;;;15.63;;
9801;SDS011;4940;50.900;4.672;2022-12-01T19:14:39;33.13;;;14.15;;
9801;SDS011;4940;50.900;4.672;2022-12-01T19:17:50;35.33;;;15.03;;
9801;SDS011;4940;50.900;4.672;2022-12-01T19:21:00;32.63;;;15.73;;
9801;SDS011;4940;50.900;4.672;2022-12-01T19:33:25;37.42;;;15.50;;
9801;SDS011;4940;50.900;4.672;2022-12-01T19:36:16;38.75;;;15.57;;
9801;SDS011;4940;50.900;4.672;2022-12-01T19:39:00;38.80;;;16.70;;
9801;SDS011;4940;50.900;4.672;2022-12-01T19:45:11;38.75;;;15.60;;
9801;SDS011;4940;50.900;4.672;2022-12-01T19:47:56;36.23;;;15.87;;
9801;SDS011;4940;50.900;4.672;2022-12-01T22:35:22;43.90;;;18.40;;
9801;SDS011;4940;50.900;4.672;2022-12-01T22:37:51;43.00;;;17.53;;
9801;SDS011;4940;50.900;4.672;2022-12-01T22:40:32;37.73;;;17.23;;
9801;SDS011;4940;50.900;4.672;2022-12-01T22:45:56;48.83;;;18.42;;
9801;SDS011;4940;50.900;4.672;2022-12-01T22:48:33;43.87;;;17.50;;
9801;SDS011;4940;50.900;4.672;2022-12-01T22:51:07;41.03;;;18.00;;